sensor_id;sensor_type;location;lat;lon;timestamp;pressure;altitude;pressure_sealevel;temperature;humidity
74594;BME280;63097;51.872;4.460;2023-09-07T00:02:21;102020.44;;;20.84;80.58
74594;BME280;63097;51.872;4.460;2023-09-07T00:04:46;102013.38;;;20.81;80.76
74594;BME280;63097;51.872;4.460;2023-09-07T00:07:11;102008.84;;;20.80;81.07
74594;BME280;63097;51.872;4.460;2023-09-07T00:09:36;102012.06;;;20.69;81.65
74594;BME280;63097;51.872;4.460;2023-09-07T00:12:02;102006.13;;;20.60;82.32
74594;BME280;63097;51.872;4.460;2023-09-07T00:14:27;102003.34;;;20.55;82.87
74594;BME280;63097;51.872;4.460;2023-09-07T00:16:52;102003.09;;;20.52;82.16
74594;BME280;63097;51.872;4.460;2023-09-07T00:19:18;102004.25;;;20.51;82.49
74594;BME280;63097;51.872;4.460;2023-09-07T00:21:43;102007.06;;;20.46;82.83
74594;BME280;63097;51.872;4.460;2023-09-07T00:24:08;102004.00;;;20.37;83.39
74594;BME280;63097;51.872;4.460;2023-09-07T00:26:33;101999.78;;;20.40;83.39
74594;BME280;63097;51.872;4.460;2023-09-07T00:28:59;102006.25;;;20.40;82.95
74594;BME280;63097;51.872;4.460;2023-09-07T00:31:24;102003.19;;;20.32;83.58
74594;BME280;63097;51.872;4.460;2023-09-07T00:33:50;102000.44;;;20.22;83.83
74594;BME280;63097;51.872;4.460;2023-09-07T00:36:15;101998.44;;;20.22;84.39
74594;BME280;63097;51.872;4.460;2023-09-07T00:38:40;102002.97;;;20.18;84.32
74594;BME280;63097;51.872;4.460;2023-09-07T00:41:05;102009.19;;;20.10;84.70
74594;BME280;63097;51.872;4.460;2023-09-07T00:43:30;102006.94;;;20.02;85.06
74594;BME280;63097;51.872;4.460;2023-09-07T00:45:56;102007.81;;;19.92;85.90
74594;BME280;63097;51.872;4.460;2023-09-07T00:48:21;102003.91;;;19.88;86.26
74594;BME280;63097;51.872;4.460;2023-09-07T00:50:46;102009.28;;;19.85;87.05
74594;BME280;63097;51.872;4.460;2023-09-07T00:53:14;102005.03;;;19.82;86.73
74594;BME280;63097;51.872;4.460;2023-09-07T00:55:39;102004.22;;;19.77;86.86
74594;BME280;63097;51.872;4.460;2023-09-07T00:58:04;101991.53;;;19.64;87.20
74594;BME280;63097;51.872;4.460;2023-09-07T01:00:30;101994.63;;;19.58;87.85
74594;BME280;63097;51.872;4.460;2023-09-07T01:02:56;101999.72;;;19.51;88.81
74594;BME280;63097;51.872;4.460;2023-09-07T01:05:32;101991.28;;;19.46;89.13
74594;BME280;63097;51.872;4.460;2023-09-07T01:08:05;101990.44;;;19.40;89.66
74594;BME280;63097;51.872;4.460;2023-09-07T01:10:34;101994.66;;;19.38;89.88
74594;BME280;63097;51.872;4.460;2023-09-07T01:13:00;101997.22;;;19.39;90.26
74594;BME280;63097;51.872;4.460;2023-09-07T01:15:25;101996.91;;;19.36;89.61
74594;BME280;63097;51.872;4.460;2023-09-07T01:17:51;101991.53;;;19.29;90.48
74594;BME280;63097;51.872;4.460;2023-09-07T01:20:17;101997.75;;;19.26;90.41
74594;BME280;63097;51.872;4.460;2023-09-07T01:22:43;101986.19;;;19.18;91.24
74594;BME280;63097;51.872;4.460;2023-09-07T01:25:09;101992.09;;;19.16;90.74
74594;BME280;63097;51.872;4.460;2023-09-07T01:27:34;101987.31;;;19.12;90.72
74594;BME280;63097;51.872;4.460;2023-09-07T01:30:00;101995.22;;;19.10;91.52
74594;BME280;63097;51.872;4.460;2023-09-07T01:32:26;101994.38;;;19.04;91.29
74594;BME280;63097;51.872;4.460;2023-09-07T01:34:52;101989.03;;;19.02;91.95
74594;BME280;63097;51.872;4.460;2023-09-07T01:37:20;101996.34;;;18.98;92.48
74594;BME280;63097;51.872;4.460;2023-09-07T01:39:45;101989.00;;;18.92;91.92
74594;BME280;63097;51.872;4.460;2023-09-07T01:42:10;101989.84;;;18.88;92.56
74594;BME280;63097;51.872;4.460;2023-09-07T01:44:35;101992.09;;;18.86;92.97
74594;BME280;63097;51.872;4.460;2023-09-07T01:47:00;101985.91;;;18.84;92.88
74594;BME280;63097;51.872;4.460;2023-09-07T01:49:26;101992.34;;;18.84;92.69
74594;BME280;63097;51.872;4.460;2023-09-07T01:51:51;101989.56;;;18.89;92.45
74594;BME280;63097;51.872;4.460;2023-09-07T01:54:16;101983.38;;;18.87;92.42
74594;BME280;63097;51.872;4.460;2023-09-07T01:56:42;101986.44;;;18.81;92.95
74594;BME280;63097;51.872;4.460;2023-09-07T01:59:07;101991.78;;;18.77;93.06
74594;BME280;63097;51.872;4.460;2023-09-07T02:01:32;101995.19;;;18.79;93.85
74594;BME280;63097;51.872;4.460;2023-09-07T02:03:57;101996.31;;;18.78;93.57
74594;BME280;63097;51.872;4.460;2023-09-07T02:06:23;101998.00;;;18.74;93.50
74594;BME280;63097;51.872;4.460;2023-09-07T02:08:48;102007.56;;;18.73;93.64
74594;BME280;63097;51.872;4.460;2023-09-07T02:11:14;101999.97;;;18.69;93.61
74594;BME280;63097;51.872;4.460;2023-09-07T02:13:43;102001.63;;;18.65;93.56
74594;BME280;63097;51.872;4.460;2023-09-07T02:16:08;102003.34;;;18.71;93.60
74594;BME280;63097;51.872;4.460;2023-09-07T02:18:35;101995.72;;;18.66;93.38
74594;BME280;63097;51.872;4.460;2023-09-07T02:21:01;101992.94;;;18.71;93.67
74594;BME280;63097;51.872;4.460;2023-09-07T02:23:27;101993.47;;;18.68;94.08
74594;BME280;63097;51.872;4.460;2023-09-07T02:25:52;101988.41;;;18.75;93.73
74594;BME280;63097;51.872;4.460;2023-09-07T02:28:17;101999.69;;;18.70;93.69
74594;BME280;63097;51.872;4.460;2023-09-07T02:30:42;101999.69;;;18.70;94.09
74594;BME280;63097;51.872;4.460;2023-09-07T02:33:08;101995.19;;;18.69;93.76
74594;BME280;63097;51.872;4.460;2023-09-07T02:35:36;101994.03;;;18.65;93.98
74594;BME280;63097;51.872;4.460;2023-09-07T02:38:02;101997.44;;;18.67;93.32
74594;BME280;63097;51.872;4.460;2023-09-07T02:40:27;101991.50;;;18.64;94.03
74594;BME280;63097;51.872;4.460;2023-09-07T02:42:52;101997.44;;;18.62;93.52
74594;BME280;63097;51.872;4.460;2023-09-07T02:45:17;101994.03;;;18.65;93.49
74594;BME280;63097;51.872;4.460;2023-09-07T02:47:43;102000.50;;;18.61;94.09
74594;BME280;63097;51.872;4.460;2023-09-07T02:50:08;101988.41;;;18.60;93.76
74594;BME280;63097;51.872;4.460;2023-09-07T02:52:33;101988.94;;;18.52;93.88
74594;BME280;63097;51.872;4.460;2023-09-07T02:54:59;101992.31;;;18.54;94.08
74594;BME280;63097;51.872;4.460;2023-09-07T02:57:24;101979.06;;;18.50;94.23
74594;BME280;63097;51.872;4.460;2023-09-07T02:59:49;101997.97;;;18.54;94.29
74594;BME280;63097;51.872;4.460;2023-09-07T03:02:14;101998.53;;;18.51;94.08
74594;BME280;63097;51.872;4.460;2023-09-07T03:04:40;101998.78;;;18.50;94.15
74594;BME280;63097;51.872;4.460;2023-09-07T03:07:05;101998.47;;;18.41;94.39
74594;BME280;63097;51.872;4.460;2023-09-07T03:09:30;102001.84;;;18.38;94.80
74594;BME280;63097;51.872;4.460;2023-09-07T03:11:55;101997.59;;;18.41;94.51
74594;BME280;63097;51.872;4.460;2023-09-07T03:14:20;101995.06;;;18.39;94.54
74594;BME280;63097;51.872;4.460;2023-09-07T03:16:46;101995.94;;;18.45;94.81
74594;BME280;63097;51.872;4.460;2023-09-07T03:19:11;101999.84;;;18.39;94.42
74594;BME280;63097;51.872;4.460;2023-09-07T03:21:36;102001.25;;;18.31;95.46
74594;BME280;63097;51.872;4.460;2023-09-07T03:24:02;101995.63;;;18.31;95.14
74594;BME280;63097;51.872;4.460;2023-09-07T03:26:27;101999.53;;;18.30;95.08
74594;BME280;63097;51.872;4.460;2023-09-07T03:28:52;102005.72;;;18.27;95.14
74594;BME280;63097;51.872;4.460;2023-09-07T03:31:17;102000.06;;;18.22;95.78
74594;BME280;63097;51.872;4.460;2023-09-07T03:33:43;102000.63;;;18.24;95.73
74594;BME280;63097;51.872;4.460;2023-09-07T03:36:08;102001.19;;;18.26;95.81
74594;BME280;63097;51.872;4.460;2023-09-07T03:38:33;101996.72;;;18.30;95.49
74594;BME280;63097;51.872;4.460;2023-09-07T03:40:58;101988.88;;;18.42;94.97
74594;BME280;63097;51.872;4.460;2023-09-07T03:43:23;101996.19;;;18.38;93.90
74594;BME280;63097;51.872;4.460;2023-09-07T03:45:49;101993.63;;;18.32;94.48
74594;BME280;63097;51.872;4.460;2023-09-07T03:48:14;101997.88;;;18.34;94.81
74594;BME280;63097;51.872;4.460;2023-09-07T03:50:39;102003.50;;;18.29;94.61
74594;BME280;63097;51.872;4.460;2023-09-07T03:53:04;101997.28;;;18.32;94.99
74594;BME280;63097;51.872;4.460;2023-09-07T03:55:39;102001.78;;;18.33;94.83
74594;BME280;63097;51.872;4.460;2023-09-07T03:58:05;102006.88;;;18.31;95.04
74594;BME280;63097;51.872;4.460;2023-09-07T04:00:30;102007.13;;;18.25;95.06
74594;BME280;63097;51.872;4.460;2023-09-07T04:02:56;102013.84;;;18.19;95.29
74594;BME280;63097;51.872;4.460;2023-09-07T04:05:21;102010.78;;;18.20;95.31
74594;BME280;63097;51.872;4.460;2023-09-07T04:07:47;102015.56;;;18.20;95.48
74594;BME280;63097;51.872;4.460;2023-09-07T04:10:12;102012.16;;;18.13;95.70
74594;BME280;63097;51.872;4.460;2023-09-07T04:12:37;102012.09;;;18.07;95.17
74594;BME280;63097;51.872;4.460;2023-09-07T04:15:02;102018.28;;;17.99;95.95
74594;BME280;63097;51.872;4.460;2023-09-07T04:17:28;102018.00;;;18.01;96.45
74594;BME280;63097;51.872;4.460;2023-09-07T04:19:53;102014.91;;;18.02;96.12
74594;BME280;63097;51.872;4.460;2023-09-07T04:22:18;102022.19;;;17.98;96.28
74594;BME280;63097;51.872;4.460;2023-09-07T04:24:47;102010.31;;;17.86;96.83
74594;BME280;63097;51.872;4.460;2023-09-07T04:27:12;102019.31;;;17.83;97.09
74594;BME280;63097;51.872;4.460;2023-09-07T04:29:38;102027.13;;;17.76;97.22
74594;BME280;63097;51.872;4.460;2023-09-07T04:32:03;102021.84;;;17.80;96.90
74594;BME280;63097;51.872;4.460;2023-09-07T04:34:28;102020.63;;;17.71;97.53
74594;BME280;63097;51.872;4.460;2023-09-07T04:36:54;102024.84;;;17.68;97.45
74594;BME280;63097;51.872;4.460;2023-09-07T04:39:19;102016.16;;;17.75;97.59
74594;BME280;63097;51.872;4.460;2023-09-07T04:41:44;102009.06;;;17.67;97.46
74594;BME280;63097;51.872;4.460;2023-09-07T04:44:10;102017.75;;;17.61;97.66
74594;BME280;63097;51.872;4.460;2023-09-07T04:46:35;102007.69;;;17.70;97.97
74594;BME280;63097;51.872;4.460;2023-09-07T04:49:00;102013.56;;;17.63;97.61
74594;BME280;63097;51.872;4.460;2023-09-07T04:51:25;102016.59;;;17.57;97.87
74594;BME280;63097;51.872;4.460;2023-09-07T04:53:51;102022.78;;;17.54;98.24
74594;BME280;63097;51.872;4.460;2023-09-07T04:56:16;102016.56;;;17.52;98.54
74594;BME280;63097;51.872;4.460;2023-09-07T04:58:42;102021.91;;;17.48;98.90
74594;BME280;63097;51.872;4.460;2023-09-07T05:01:09;102017.72;;;17.56;98.98
74594;BME280;63097;51.872;4.460;2023-09-07T05:03:35;102023.34;;;17.56;98.45
74594;BME280;63097;51.872;4.460;2023-09-07T05:06:01;102023.97;;;17.63;98.64
74594;BME280;63097;51.872;4.460;2023-09-07T05:08:27;102026.19;;;17.61;98.34
74594;BME280;63097;51.872;4.460;2023-09-07T05:10:59;102023.41;;;17.66;97.89
74594;BME280;63097;51.872;4.460;2023-09-07T05:13:25;102030.75;;;17.67;97.33
74594;BME280;63097;51.872;4.460;2023-09-07T05:15:51;102039.13;;;17.62;97.87
74594;BME280;63097;51.872;4.460;2023-09-07T05:18:18;102034.06;;;17.59;97.86
74594;BME280;63097;51.872;4.460;2023-09-07T05:20:44;102045.03;;;17.60;97.79
74594;BME280;63097;51.872;4.460;2023-09-07T05:23:09;102043.66;;;17.63;97.86
74594;BME280;63097;51.872;4.460;2023-09-07T05:25:42;102043.94;;;17.61;98.06
74594;BME280;63097;51.872;4.460;2023-09-07T05:28:08;102035.81;;;17.65;97.50
74594;BME280;63097;51.872;4.460;2023-09-07T05:30:33;102036.16;;;17.78;97.29
74594;BME280;63097;51.872;4.460;2023-09-07T05:32:58;102041.56;;;17.85;97.21
74594;BME280;63097;51.872;4.460;2023-09-07T05:35:23;102038.47;;;17.86;96.98
74594;BME280;63097;51.872;4.460;2023-09-07T05:37:48;102039.28;;;17.82;97.28
74594;BME280;63097;51.872;4.460;2023-09-07T05:40:14;102045.78;;;17.87;96.90
74594;BME280;63097;51.872;4.460;2023-09-07T05:42:39;102039.06;;;17.93;96.88
74594;BME280;63097;51.872;4.460;2023-09-07T05:45:05;102044.13;;;17.96;96.59
74594;BME280;63097;51.872;4.460;2023-09-07T05:47:30;102039.09;;;17.98;96.34
74594;BME280;63097;51.872;4.460;2023-09-07T05:49:55;102040.84;;;18.09;95.86
74594;BME280;63097;51.872;4.460;2023-09-07T05:52:21;102035.81;;;18.17;95.22
74594;BME280;63097;51.872;4.460;2023-09-07T05:54:46;102043.16;;;18.18;95.16
74594;BME280;63097;51.872;4.460;2023-09-07T05:57:11;102043.72;;;18.20;94.92
74594;BME280;63097;51.872;4.460;2023-09-07T05:59:36;102046.31;;;18.31;94.54
74594;BME280;63097;51.872;4.460;2023-09-07T06:02:02;102042.94;;;18.39;93.87
74594;BME280;63097;51.872;4.460;2023-09-07T06:04:27;102055.41;;;18.48;93.19
74594;BME280;63097;51.872;4.460;2023-09-07T06:06:52;102057.13;;;18.54;93.31
74594;BME280;63097;51.872;4.460;2023-09-07T06:09:17;102053.78;;;18.62;92.55
74594;BME280;63097;51.872;4.460;2023-09-07T06:11:42;102060.03;;;18.74;92.42
74594;BME280;63097;51.872;4.460;2023-09-07T06:14:08;102060.59;;;18.81;91.87
74594;BME280;63097;51.872;4.460;2023-09-07T06:16:33;102055.53;;;18.88;91.41
74594;BME280;63097;51.872;4.460;2023-09-07T06:18:58;102057.81;;;19.01;90.22
74594;BME280;63097;51.872;4.460;2023-09-07T06:21:23;102068.84;;;19.13;90.19
74594;BME280;63097;51.872;4.460;2023-09-07T06:23:49;102066.59;;;19.25;90.20
74594;BME280;63097;51.872;4.460;2023-09-07T06:26:14;102072.56;;;19.44;88.88
74594;BME280;63097;51.872;4.460;2023-09-07T06:28:39;102060.69;;;19.57;87.79
74594;BME280;63097;51.872;4.460;2023-09-07T06:31:04;102070.28;;;19.71;86.93
74594;BME280;63097;51.872;4.460;2023-09-07T06:33:30;102070.25;;;19.96;85.73
74594;BME280;63097;51.872;4.460;2023-09-07T06:35:55;102077.00;;;20.10;85.00
74594;BME280;63097;51.872;4.460;2023-09-07T06:38:20;102073.03;;;20.16;84.47
74594;BME280;63097;51.872;4.460;2023-09-07T06:40:49;102070.16;;;20.31;84.06
74594;BME280;63097;51.872;4.460;2023-09-07T06:43:14;102071.81;;;20.47;82.74
74594;BME280;63097;51.872;4.460;2023-09-07T06:45:39;102073.44;;;20.63;81.73
74594;BME280;63097;51.872;4.460;2023-09-07T06:48:04;102072.56;;;20.68;81.14
74594;BME280;63097;51.872;4.460;2023-09-07T06:50:30;102077.88;;;20.79;80.02
74594;BME280;63097;51.872;4.460;2023-09-07T06:52:55;102077.19;;;21.02;79.83
74594;BME280;63097;51.872;4.460;2023-09-07T06:55:20;102063.84;;;21.08;79.17
74594;BME280;63097;51.872;4.460;2023-09-07T06:57:46;102074.50;;;21.21;78.32
74594;BME280;63097;51.872;4.460;2023-09-07T07:00:11;102067.09;;;21.30;78.19
74594;BME280;63097;51.872;4.460;2023-09-07T07:02:37;102068.94;;;21.45;77.30
74594;BME280;63097;51.872;4.460;2023-09-07T07:05:03;102073.19;;;21.47;77.13
74594;BME280;63097;51.872;4.460;2023-09-07T07:07:29;102073.13;;;21.52;76.79
74594;BME280;63097;51.872;4.460;2023-09-07T07:09:54;102080.75;;;21.57;76.44
74594;BME280;63097;51.872;4.460;2023-09-07T07:12:20;102075.91;;;21.57;76.33
74594;BME280;63097;51.872;4.460;2023-09-07T07:14:45;102082.38;;;21.63;75.99
74594;BME280;63097;51.872;4.460;2023-09-07T07:17:10;102081.16;;;21.79;74.96
74594;BME280;63097;51.872;4.460;2023-09-07T07:19:35;102084.03;;;22.03;74.57
74594;BME280;63097;51.872;4.460;2023-09-07T07:22:01;102075.38;;;22.18;73.25
74594;BME280;63097;51.872;4.460;2023-09-07T07:24:26;102085.47;;;22.24;72.83
74594;BME280;63097;51.872;4.460;2023-09-07T07:26:51;102072.00;;;22.39;72.86
74594;BME280;63097;51.872;4.460;2023-09-07T07:29:17;102072.81;;;22.40;71.08
74594;BME280;63097;51.872;4.460;2023-09-07T07:31:43;102070.38;;;22.57;71.18
74594;BME280;63097;51.872;4.460;2023-09-07T07:34:08;102064.56;;;22.67;69.39
74594;BME280;63097;51.872;4.460;2023-09-07T07:36:33;102063.88;;;22.75;69.46
74594;BME280;63097;51.872;4.460;2023-09-07T07:38:58;102073.09;;;23.04;68.25
74594;BME280;63097;51.872;4.460;2023-09-07T07:41:23;102064.59;;;23.04;68.14
74594;BME280;63097;51.872;4.460;2023-09-07T07:43:49;102065.53;;;23.18;67.95
74594;BME280;63097;51.872;4.460;2023-09-07T07:46:15;102059.53;;;23.38;67.50
74594;BME280;63097;51.872;4.460;2023-09-07T07:48:41;102057.16;;;23.45;66.85
74594;BME280;63097;51.872;4.460;2023-09-07T07:51:06;102059.25;;;23.53;65.77
74594;BME280;63097;51.872;4.460;2023-09-07T07:53:32;102061.47;;;23.75;65.78
74594;BME280;63097;51.872;4.460;2023-09-07T07:55:57;102063.41;;;23.93;65.39
74594;BME280;63097;51.872;4.460;2023-09-07T07:58:23;102059.06;;;23.95;64.89
74594;BME280;63097;51.872;4.460;2023-09-07T08:00:48;102059.56;;;24.03;63.49
74594;BME280;63097;51.872;4.460;2023-09-07T08:03:13;102058.09;;;24.19;64.94
74594;BME280;63097;51.872;4.460;2023-09-07T08:05:38;102057.13;;;24.23;63.26
74594;BME280;63097;51.872;4.460;2023-09-07T08:08:04;102048.81;;;24.40;63.30
74594;BME280;63097;51.872;4.460;2023-09-07T08:10:33;102046.19;;;24.44;63.05
74594;BME280;63097;51.872;4.460;2023-09-07T08:12:58;102047.22;;;24.61;62.36
74594;BME280;63097;51.872;4.460;2023-09-07T08:15:24;102047.41;;;24.92;62.04
74594;BME280;63097;51.872;4.460;2023-09-07T08:17:49;102064.03;;;25.12;61.29
74594;BME280;63097;51.872;4.460;2023-09-07T08:20:14;102048.88;;;25.39;59.60
74594;BME280;63097;51.872;4.460;2023-09-07T08:22:40;102045.50;;;25.59;58.77
74594;BME280;63097;51.872;4.460;2023-09-07T08:25:05;102043.44;;;25.73;57.95
74594;BME280;63097;51.872;4.460;2023-09-07T08:27:30;102047.88;;;25.88;57.58
74594;BME280;63097;51.872;4.460;2023-09-07T08:29:56;102041.53;;;25.99;56.67
74594;BME280;63097;51.872;4.460;2023-09-07T08:32:21;102040.28;;;26.05;56.60
74594;BME280;63097;51.872;4.460;2023-09-07T08:34:46;102041.53;;;26.30;56.71
74594;BME280;63097;51.872;4.460;2023-09-07T08:37:11;102039.63;;;26.56;55.33
74594;BME280;63097;51.872;4.460;2023-09-07T08:39:37;102040.31;;;26.61;54.42
74594;BME280;63097;51.872;4.460;2023-09-07T08:42:02;102045.47;;;26.42;53.48
74594;BME280;63097;51.872;4.460;2023-09-07T08:44:28;102040.31;;;26.53;53.68
74594;BME280;63097;51.872;4.460;2023-09-07T08:46:55;102036.34;;;26.32;54.13
74594;BME280;63097;51.872;4.460;2023-09-07T08:49:20;102042.16;;;26.57;54.46
74594;BME280;63097;51.872;4.460;2023-09-07T08:51:46;102048.19;;;26.56;53.88
74594;BME280;63097;51.872;4.460;2023-09-07T08:54:12;102043.56;;;26.68;53.82
74594;BME280;63097;51.872;4.460;2023-09-07T08:56:37;102042.09;;;26.88;52.54
74594;BME280;63097;51.872;4.460;2023-09-07T08:59:03;102028.63;;;26.80;52.86
74594;BME280;63097;51.872;4.460;2023-09-07T09:01:28;102033.88;;;27.38;51.39
74594;BME280;63097;51.872;4.460;2023-09-07T09:03:53;102031.34;;;27.62;51.82
74594;BME280;63097;51.872;4.460;2023-09-07T09:06:20;102031.44;;;28.08;50.26
74594;BME280;63097;51.872;4.460;2023-09-07T09:11:12;102030.13;;;27.80;50.03
74594;BME280;63097;51.872;4.460;2023-09-07T09:13:39;102027.56;;;28.04;49.48
74594;BME280;63097;51.872;4.460;2023-09-07T09:16:05;102034.94;;;28.14;49.87
74594;BME280;63097;51.872;4.460;2023-09-07T09:18:30;102032.97;;;28.43;49.14
74594;BME280;63097;51.872;4.460;2023-09-07T09:20:56;102030.75;;;28.78;49.40
74594;BME280;63097;51.872;4.460;2023-09-07T09:23:21;102032.28;;;28.75;48.41
74594;BME280;63097;51.872;4.460;2023-09-07T09:25:50;102034.44;;;29.08;48.79
74594;BME280;63097;51.872;4.460;2023-09-07T09:28:15;102026.53;;;28.84;48.41
74594;BME280;63097;51.872;4.460;2023-09-07T09:30:41;102028.69;;;28.87;47.63
74594;BME280;63097;51.872;4.460;2023-09-07T09:33:07;102044.97;;;28.95;48.34
74594;BME280;63097;51.872;4.460;2023-09-07T09:35:34;102031.69;;;28.91;47.84
74594;BME280;63097;51.872;4.460;2023-09-07T09:38:01;102044.72;;;29.29;47.08
74594;BME280;63097;51.872;4.460;2023-09-07T09:40:26;102037.34;;;28.79;48.52
74594;BME280;63097;51.872;4.460;2023-09-07T09:42:52;102030.88;;;28.61;48.65
74594;BME280;63097;51.872;4.460;2023-09-07T09:45:20;102028.88;;;29.03;47.89
74594;BME280;63097;51.872;4.460;2023-09-07T09:47:45;102035.84;;;29.22;48.30
74594;BME280;63097;51.872;4.460;2023-09-07T09:50:12;102032.38;;;29.17;47.33
74594;BME280;63097;51.872;4.460;2023-09-07T09:52:37;102031.94;;;29.80;44.96
74594;BME280;63097;51.872;4.460;2023-09-07T09:55:07;102024.41;;;30.44;43.01
74594;BME280;63097;51.872;4.460;2023-09-07T09:57:36;102044.53;;;30.56;42.72
74594;BME280;63097;51.872;4.460;2023-09-07T10:00:02;102036.50;;;30.74;42.46
74594;BME280;63097;51.872;4.460;2023-09-07T10:02:28;102027.19;;;30.89;41.92
74594;BME280;63097;51.872;4.460;2023-09-07T10:04:53;102023.22;;;30.57;41.96
74594;BME280;63097;51.872;4.460;2023-09-07T10:07:19;102021.91;;;30.91;41.32
74594;BME280;63097;51.872;4.460;2023-09-07T10:09:44;102010.59;;;31.10;40.65
74594;BME280;63097;51.872;4.460;2023-09-07T10:12:13;102018.06;;;31.67;40.08
74594;BME280;63097;51.872;4.460;2023-09-07T10:14:42;102018.53;;;31.69;39.31
74594;BME280;63097;51.872;4.460;2023-09-07T10:17:08;102018.00;;;32.06;39.79
74594;BME280;63097;51.872;4.460;2023-09-07T10:19:33;102014.28;;;32.21;39.76
74594;BME280;63097;51.872;4.460;2023-09-07T10:21:59;102007.53;;;32.95;37.53
74594;BME280;63097;51.872;4.460;2023-09-07T10:24:34;102015.38;;;32.17;38.79
74594;BME280;63097;51.872;4.460;2023-09-07T10:27:06;102014.13;;;32.96;36.54
74594;BME280;63097;51.872;4.460;2023-09-07T10:29:51;102015.69;;;33.09;38.43
74594;BME280;63097;51.872;4.460;2023-09-07T10:32:16;102016.28;;;32.83;37.95
74594;BME280;63097;51.872;4.460;2023-09-07T10:34:42;102009.25;;;33.53;36.94
74594;BME280;63097;51.872;4.460;2023-09-07T10:37:07;102021.13;;;33.68;36.09
74594;BME280;63097;51.872;4.460;2023-09-07T10:39:33;102011.03;;;34.00;36.45
74594;BME280;63097;51.872;4.460;2023-09-07T10:41:58;102012.91;;;34.57;34.92
74594;BME280;63097;51.872;4.460;2023-09-07T10:44:27;102012.47;;;34.81;33.42
74594;BME280;63097;51.872;4.460;2023-09-07T10:46:52;102008.59;;;34.47;33.64
74594;BME280;63097;51.872;4.460;2023-09-07T10:49:18;102003.13;;;34.19;33.53
74594;BME280;63097;51.872;4.460;2023-09-07T10:51:45;102004.47;;;34.44;34.04
74594;BME280;63097;51.872;4.460;2023-09-07T10:54:22;102000.47;;;34.07;35.00
74594;BME280;63097;51.872;4.460;2023-09-07T10:56:48;102003.13;;;34.19;33.65
74594;BME280;63097;51.872;4.460;2023-09-07T10:59:15;102004.28;;;34.86;33.73
74594;BME280;63097;51.872;4.460;2023-09-07T11:01:41;102002.19;;;34.57;33.54
74594;BME280;63097;51.872;4.460;2023-09-07T11:04:06;101995.13;;;34.81;33.41
74594;BME280;63097;51.872;4.460;2023-09-07T11:06:32;101993.47;;;35.39;33.03
74594;BME280;63097;51.872;4.460;2023-09-07T11:09:01;101984.72;;;35.02;32.70
74594;BME280;63097;51.872;4.460;2023-09-07T11:11:27;101987.84;;;34.90;33.24
74594;BME280;63097;51.872;4.460;2023-09-07T11:13:52;101989.53;;;35.21;33.56
74594;BME280;63097;51.872;4.460;2023-09-07T11:16:17;101980.38;;;35.45;32.17
74594;BME280;63097;51.872;4.460;2023-09-07T11:18:44;101977.69;;;35.33;31.81
74594;BME280;63097;51.872;4.460;2023-09-07T11:21:10;101980.50;;;35.56;31.65
74594;BME280;63097;51.872;4.460;2023-09-07T11:23:35;101968.16;;;35.29;33.04
74594;BME280;63097;51.872;4.460;2023-09-07T11:26:00;101973.34;;;35.46;31.99
74594;BME280;63097;51.872;4.460;2023-09-07T11:28:30;101971.31;;;35.50;32.99
74594;BME280;63097;51.872;4.460;2023-09-07T11:30:56;101960.38;;;36.06;31.10
74594;BME280;63097;51.872;4.460;2023-09-07T11:33:22;101966.22;;;36.13;31.19
74594;BME280;63097;51.872;4.460;2023-09-07T11:35:48;101959.06;;;35.30;31.26
74594;BME280;63097;51.872;4.460;2023-09-07T11:38:14;101950.78;;;35.29;32.03
74594;BME280;63097;51.872;4.460;2023-09-07T11:40:41;101965.44;;;36.16;30.99
74594;BME280;63097;51.872;4.460;2023-09-07T11:43:06;101961.63;;;36.05;30.64
74594;BME280;63097;51.872;4.460;2023-09-07T11:45:32;101959.53;;;36.02;30.10
74594;BME280;63097;51.872;4.460;2023-09-07T11:47:57;101953.34;;;36.55;30.36
74594;BME280;63097;51.872;4.460;2023-09-07T11:50:23;101950.09;;;36.63;28.59
74594;BME280;63097;51.872;4.460;2023-09-07T11:52:48;101951.75;;;36.61;29.42
74594;BME280;63097;51.872;4.460;2023-09-07T11:55:14;101946.34;;;36.12;31.06
74594;BME280;63097;51.872;4.460;2023-09-07T11:57:40;101940.88;;;36.51;30.02
74594;BME280;63097;51.872;4.460;2023-09-07T12:00:05;101940.88;;;37.08;30.38
74594;BME280;63097;51.872;4.460;2023-09-07T12:02:31;101939.22;;;36.46;29.71
74594;BME280;63097;51.872;4.460;2023-09-07T12:04:56;101935.84;;;37.02;29.36
74594;BME280;63097;51.872;4.460;2023-09-07T12:07:21;101945.63;;;36.80;28.70
74594;BME280;63097;51.872;4.460;2023-09-07T12:09:47;101934.34;;;36.61;30.31
74594;BME280;63097;51.872;4.460;2023-09-07T12:12:12;101926.81;;;37.14;30.27
74594;BME280;63097;51.872;4.460;2023-09-07T12:14:38;101919.13;;;36.81;28.07
74594;BME280;63097;51.872;4.460;2023-09-07T12:17:03;101911.19;;;37.50;28.85
74594;BME280;63097;51.872;4.460;2023-09-07T12:19:28;101920.75;;;37.61;28.01
74594;BME280;63097;51.872;4.460;2023-09-07T12:21:53;101909.50;;;37.49;27.57
74594;BME280;63097;51.872;4.460;2023-09-07T12:24:19;101903.38;;;38.53;27.67
74594;BME280;63097;51.872;4.460;2023-09-07T12:26:44;101915.44;;;38.37;27.60
74594;BME280;63097;51.872;4.460;2023-09-07T12:29:09;101916.19;;;37.64;28.10
74594;BME280;63097;51.872;4.460;2023-09-07T12:31:34;101911.09;;;37.29;27.09
74594;BME280;63097;51.872;4.460;2023-09-07T12:33:59;101902.56;;;37.85;26.82
74594;BME280;63097;51.872;4.460;2023-09-07T12:36:25;101897.97;;;37.88;28.17
74594;BME280;63097;51.872;4.460;2023-09-07T12:38:50;101895.91;;;37.99;26.51
74594;BME280;63097;51.872;4.460;2023-09-07T12:41:15;101886.38;;;38.23;27.65
74594;BME280;63097;51.872;4.460;2023-09-07T12:43:41;101894.22;;;38.65;27.03
74594;BME280;63097;51.872;4.460;2023-09-07T12:46:06;101897.84;;;39.07;25.27